Time;durP1;ratioP1;P1;durP2;ratioP2;P2;SDS_P1;SDS_P2;PMS_P1;PMS_P2;Temp;Humidity;BMP_temperature;BMP_pressure;BME280_temperature;BME280_humidity;BME280_pressure;Samples;Min_cycle;Max_cycle;Signal;HPM_P1;HPM_P2
2023/04/05 00:01:48;;;;;;;5.22;3.00;;;7.00;97.40;;;;;;4175814;28;20155;-65
2023/04/05 00:03:50;;;;;;;5.70;3.40;;;6.90;97.60;;;;;;4167228;28;20490;-66
2023/04/05 00:05:53;;;;;;;5.40;3.03;;;6.90;97.80;;;;;;4177378;28;20052;-65
2023/04/05 00:07:55;;;;;;;;;;;6.90;97.80;;;;;;4178896;28;20086;-66
2023/04/05 00:09:55;;;;;;;5.18;3.08;;;6.80;97.90;;;;;;4178130;28;19912;-67
2023/04/05 00:11:56;;;;;;;5.68;3.20;;;6.80;98.10;;;;;;4177291;28;20040;-66
2023/04/05 00:14:00;;;;;;;7.32;3.08;;;6.70;98.00;;;;;;4174160;28;20040;-65
2023/04/05 00:16:01;;;;;;;7.82;3.63;;;6.70;97.80;;;;;;4170638;28;20033;-66
2023/04/05 00:18:02;;;;;;;6.28;3.70;;;6.60;97.80;;;;;;4169800;28;20063;-66
2023/04/05 00:20:06;;;;;;;7.57;3.72;;;6.60;97.80;;;;;;4180454;28;20476;-65
2023/04/05 00:22:09;;;;;;;5.90;3.22;;;6.60;97.70;;;;;;4166956;28;20484;-65
2023/04/05 00:24:14;;;;;;;;;;;6.50;97.80;;;;;;4181353;28;20116;-65
2023/04/05 00:26:14;;;;;;;6.82;3.63;;;6.50;98.00;;;;;;4175343;28;19913;-65
2023/04/05 00:28:16;;;;;;;5.50;3.25;;;6.40;98.50;;;;;;4177076;28;20476;-65
2023/04/05 00:30:20;;;;;;;7.72;3.67;;;6.40;98.40;;;;;;4172245;28;20393;-65
2023/04/05 00:32:21;;;;;;;8.43;3.72;;;6.40;98.60;;;;;;4169286;28;20933;-65
2023/04/05 00:34:21;;;;;;;7.07;3.92;;;6.30;98.80;;;;;;4177903;28;20044;-65
2023/04/05 00:36:22;;;;;;;5.68;3.58;;;6.30;98.90;;;;;;4174134;28;20113;-65
2023/04/05 00:38:23;;;;;;;6.32;3.70;;;6.30;99.40;;;;;;4164360;28;20080;-65
2023/04/05 00:40:23;;;;;;;6.28;3.55;;;6.20;99.20;;;;;;4164384;28;20037;-65
2023/04/05 00:42:24;;;;;;;6.68;3.20;;;6.30;98.80;;;;;;4165413;28;20481;-65
2023/04/05 00:44:25;;;;;;;5.53;3.22;;;6.20;98.80;;;;;;4180722;28;20495;-65
2023/04/05 00:46:26;;;;;;;4.85;3.05;;;6.20;98.90;;;;;;4180708;28;20044;-65
2023/04/05 00:48:27;;;;;;;5.20;3.55;;;6.20;99.00;;;;;;4173820;28;20064;-65
2023/04/05 00:50:31;;;;;;;5.78;3.42;;;6.10;99.90;;;;;;4180096;28;20028;-66
2023/04/05 00:52:32;;;;;;;5.40;3.35;;;6.10;99.90;;;;;;4180908;28;20429;-66
2023/04/05 00:54:33;;;;;;;6.40;3.63;;;6.10;99.90;;;;;;4175352;28;20029;-66
2023/04/05 00:56:35;;;;;;;5.10;3.38;;;6.10;99.90;;;;;;4174191;28;20087;-65
2023/04/05 00:58:36;;;;;;;8.27;3.47;;;6.10;99.90;;;;;;4177526;28;20320;-66
2023/04/05 01:00:38;;;;;;;8.07;3.40;;;6.10;99.90;;;;;;4179980;28;20028;-65
2023/04/05 01:02:52;;;;;;;6.00;3.63;;;6.00;99.90;;;;;;4180232;28;20068;-65
2023/04/05 01:05:00;;;;;;;6.40;3.50;;;6.00;99.90;;;;;;4164341;28;20532;-65
2023/04/05 01:07:21;;;;;;;6.38;3.47;;;5.90;99.90;;;;;;4168221;28;20478;-67
2023/04/05 01:09:47;;;;;;;5.47;3.42;;;5.90;99.90;;;;;;4174950;28;20545;-65
2023/04/05 01:11:48;;;;;;;8.63;4.68;;;5.90;99.90;;;;;;4176853;28;20353;-66
2023/04/05 01:13:49;;;;;;;12.10;5.65;;;5.90;99.90;;;;;;4180376;28;20029;-65
2023/04/05 01:15:49;;;;;;;13.50;5.75;;;5.90;99.90;;;;;;4179242;28;20033;-65
2023/04/05 01:17:52;;;;;;;11.02;5.38;;;5.80;99.90;;;;;;4179766;28;20033;-65
2023/04/05 01:19:59;;;;;;;10.05;5.38;;;5.80;99.90;;;;;;4172320;28;20381;-65
2023/04/05 01:22:53;;;;;;;8.05;4.53;;;5.80;99.90;;;;;;4164100;28;20033;-65
2023/04/05 01:25:09;;;;;;;8.07;4.45;;;5.80;99.90;;;;;;4108693;28;20038;-65
2023/04/05 01:27:18;;;;;;;8.45;4.55;;;5.80;99.90;;;;;;4159123;28;20041;-66
2023/04/05 01:29:37;;;;;;;7.85;3.92;;;5.70;99.90;;;;;;4179264;28;20033;-65
2023/04/05 01:31:48;;;;;;;7.93;4.57;;;5.70;99.90;;;;;;4168309;28;20030;-65
2023/04/05 01:34:04;;;;;;;5.80;3.08;;;5.70;99.90;;;;;;4175153;28;20127;-65
2023/04/05 01:36:26;;;;;;;7.32;3.80;;;5.70;99.90;;;;;;4168833;28;20040;-65
2023/04/05 01:38:27;;;;;;;7.18;3.65;;;5.60;99.90;;;;;;4172680;28;20392;-65
2023/04/05 01:40:30;;;;;;;6.57;4.18;;;5.60;99.90;;;;;;4175958;28;20090;-66
2023/04/05 01:42:31;;;;;;;5.38;3.60;;;5.60;99.90;;;;;;4169018;28;20396;-66
2023/04/05 01:44:31;;;;;;;6.03;3.47;;;5.50;99.90;;;;;;4165755;28;20045;-65
2023/04/05 01:46:32;;;;;;;7.13;3.65;;;5.50;99.90;;;;;;4174138;28;20029;-65
2023/04/05 01:48:33;;;;;;;5.35;3.83;;;5.50;99.90;;;;;;4173421;28;20055;-65
2023/04/05 01:50:33;;;;;;;7.45;4.03;;;5.50;99.90;;;;;;4172751;28;20033;-65
2023/04/05 01:52:34;;;;;;;7.97;4.50;;;5.50;99.90;;;;;;4174850;28;20028;-65
2023/04/05 01:54:35;;;;;;;8.27;4.43;;;5.50;99.90;;;;;;4173652;28;20065;-65
2023/04/05 01:56:35;;;;;;;7.68;4.38;;;5.50;99.90;;;;;;4169899;28;20510;-65
2023/04/05 01:58:37;;;;;;;7.20;4.35;;;5.50;99.90;;;;;;4177758;28;20106;-65
2023/04/05 02:00:38;;;;;;;8.15;4.60;;;5.50;99.90;;;;;;4175006;28;20052;-65
2023/04/05 02:02:38;;;;;;;7.53;4.15;;;5.50;99.90;;;;;;4165434;28;20163;-65
2023/04/05 02:04:39;;;;;;;9.23;4.40;;;5.50;99.90;;;;;;4175467;28;20037;-66
2023/04/05 02:06:40;;;;;;;5.43;3.72;;;5.50;99.90;;;;;;4169640;28;20139;-65
2023/04/05 02:08:40;;;;;;;7.70;3.78;;;5.50;99.90;;;;;;4176929;28;20042;-65
2023/04/05 02:10:41;;;;;;;6.93;4.20;;;5.50;99.90;;;;;;4174191;28;20067;-65
2023/04/05 02:12:42;;;;;;;7.15;3.85;;;5.50;99.90;;;;;;4178223;28;20028;-65
2023/04/05 02:14:42;;;;;;;7.90;4.55;;;5.50;99.90;;;;;;4166192;28;20392;-65
2023/04/05 02:16:43;;;;;;;8.43;4.32;;;5.50;99.90;;;;;;4176928;28;20033;-65
2023/04/05 02:18:49;;;;;;;6.57;4.22;;;5.50;99.90;;;;;;4175326;28;20160;-65
2023/04/05 02:20:51;;;;;;;7.78;4.38;;;5.40;99.90;;;;;;4171353;28;20029;-65
2023/04/05 02:22:52;;;;;;;7.25;3.88;;;5.40;99.90;;;;;;4175761;28;20053;-65
2023/04/05 02:24:53;;;;;;;10.10;4.18;;;5.40;99.90;;;;;;4172431;28;20037;-65
2023/04/05 02:26:54;;;;;;;10.25;4.53;;;5.30;99.90;;;;;;4174065;28;20434;-65
2023/04/05 02:28:54;;;;;;;6.60;3.92;;;5.30;99.90;;;;;;4179239;28;20025;-65
2023/04/05 02:30:55;;;;;;;7.30;4.05;;;5.30;99.90;;;;;;4173699;28;20079;-65
2023/04/05 02:32:56;;;;;;;7.68;3.95;;;5.30;99.90;;;;;;4172707;28;20080;-65
2023/04/05 02:34:57;;;;;;;7.70;4.00;;;5.20;99.90;;;;;;4165715;28;20037;-65
2023/04/05 02:36:57;;;;;;;6.68;3.70;;;5.20;99.90;;;;;;4173622;28;20387;-65
2023/04/05 02:38:58;;;;;;;9.50;4.07;;;5.20;99.90;;;;;;4171711;28;20037;-66
2023/04/05 02:40:58;;;;;;;7.20;4.03;;;5.10;99.90;;;;;;4174890;28;20029;-65
2023/04/05 02:42:59;;;;;;;5.38;3.35;;;5.10;99.90;;;;;;4174545;28;20064;-65
2023/04/05 02:45:00;;;;;;;7.82;3.97;;;5.10;99.90;;;;;;4176124;28;20384;-65
2023/04/05 02:47:02;;;;;;;8.00;4.28;;;5.10;99.90;;;;;;4175671;28;20047;-66
2023/04/05 02:49:03;;;;;;;7.07;4.05;;;5.10;99.90;;;;;;4173717;28;20488;-65
2023/04/05 02:51:04;;;;;;;6.00;3.83;;;5.10;99.90;;;;;;4163878;28;20060;-65
2023/04/05 02:53:04;;;;;;;9.48;4.28;;;5.10;99.90;;;;;;4171734;28;20549;-65
2023/04/05 02:55:05;;;;;;;6.53;3.50;;;5.00;99.90;;;;;;4168798;28;20025;-66
2023/04/05 02:57:09;;;;;;;5.95;3.70;;;5.00;99.90;;;;;;4161178;28;20072;-65
2023/04/05 02:59:10;;;;;;;8.50;3.83;;;5.00;99.90;;;;;;4173165;28;20052;-66
2023/04/05 03:01:11;;;;;;;9.27;4.65;;;5.00;99.90;;;;;;4172872;28;20029;-65
2023/04/05 03:03:12;;;;;;;8.00;4.20;;;5.00;99.90;;;;;;4176865;28;20029;-65
2023/04/05 03:05:12;;;;;;;7.32;4.15;;;5.00;99.90;;;;;;4166329;28;20053;-66
2023/04/05 03:07:17;;;;;;;8.82;4.95;;;5.00;99.90;;;;;;4177604;28;20116;-66
2023/04/05 03:09:17;;;;;;;7.63;3.83;;;5.00;99.90;;;;;;4173449;28;20415;-65
2023/04/05 03:11:18;;;;;;;8.05;4.28;;;5.00;99.90;;;;;;4171508;28;20049;-65
2023/04/05 03:13:19;;;;;;;6.35;4.10;;;5.00;99.90;;;;;;4177386;28;20419;-65
2023/04/05 03:15:19;;;;;;;8.00;4.53;;;4.90;99.90;;;;;;4168438;28;20087;-65
2023/04/05 03:17:20;;;;;;;6.70;4.03;;;4.90;99.90;;;;;;4167908;28;20034;-65
2023/04/05 03:19:21;;;;;;;7.32;4.53;;;4.90;99.90;;;;;;4178665;28;20036;-65
2023/04/05 03:21:22;;;;;;;8.93;4.53;;;4.80;99.90;;;;;;4168197;28;20037;-65
2023/04/05 03:23:26;;;;;;;5.72;3.88;;;4.80;99.90;;;;;;4178525;28;20029;-65
2023/04/05 03:25:27;;;;;;;6.75;4.00;;;4.80;99.90;;;;;;4176777;28;20500;-65
2023/04/05 03:27:28;;;;;;;7.93;4.25;;;4.80;99.90;;;;;;4152217;28;20041;-66
2023/04/05 03:29:29;;;;;;;6.35;3.80;;;4.80;99.90;;;;;;4169652;28;20068;-65
2023/04/05 03:31:29;;;;;;;6.90;4.10;;;4.80;99.90;;;;;;4170598;28;20029;-65
2023/04/05 03:33:30;;;;;;;6.53;3.67;;;4.80;99.90;;;;;;4171626;28;20469;-65
2023/04/05 03:35:30;;;;;;;7.55;4.32;;;4.70;99.90;;;;;;4172743;28;20034;-65
2023/04/05 03:37:31;;;;;;;8.55;4.53;;;4.80;99.90;;;;;;4168149;28;20067;-66
2023/04/05 03:39:32;;;;;;;7.28;4.47;;;4.80;99.90;;;;;;4178360;28;20491;-65
2023/04/05 03:41:32;;;;;;;6.70;3.83;;;4.80;99.90;;;;;;4163662;28;20044;-65
2023/04/05 03:43:33;;;;;;;6.57;4.15;;;4.70;99.90;;;;;;4164391;28;20033;-65
2023/04/05 03:45:34;;;;;;;7.43;4.20;;;4.70;99.90;;;;;;4164207;28;20523;-65
2023/04/05 03:47:34;;;;;;;5.28;3.67;;;4.70;99.90;;;;;;4173556;28;20119;-65
2023/04/05 03:49:35;;;;;;;8.77;4.78;;;4.70;99.90;;;;;;4167511;28;20545;-66
2023/04/05 03:51:35;;;;;;;7.70;3.90;;;4.70;99.90;;;;;;4166641;28;20116;-65
2023/04/05 03:53:36;;;;;;;6.43;4.35;;;4.70;99.90;;;;;;4170370;28;20041;-65
2023/04/05 03:55:37;;;;;;;6.05;3.92;;;4.70;99.90;;;;;;4168170;28;20038;-66
2023/04/05 03:57:38;;;;;;;7.88;4.88;;;4.70;99.90;;;;;;4172694;28;20089;-65
2023/04/05 03:59:38;;;;;;;7.57;4.57;;;4.70;99.90;;;;;;4178068;28;20112;-66
2023/04/05 04:01:39;;;;;;;6.57;4.28;;;4.60;99.90;;;;;;4171556;28;20487;-66
2023/04/05 04:03:40;;;;;;;5.90;3.88;;;4.50;99.90;;;;;;4168872;28;20068;-66
2023/04/05 04:05:40;;;;;;;5.82;4.05;;;4.60;99.90;;;;;;4173335;28;20041;-66
2023/04/05 04:07:42;;;;;;;7.88;4.18;;;4.60;99.90;;;;;;4178684;28;20468;-65
2023/04/05 04:09:43;;;;;;;7.63;4.13;;;4.60;99.90;;;;;;4178557;28;20053;-66
2023/04/05 04:11:44;;;;;;;6.53;3.88;;;4.50;99.90;;;;;;4172387;28;20075;-66
2023/04/05 04:13:44;;;;;;;11.05;4.45;;;4.50;99.90;;;;;;4174838;28;20112;-66
2023/04/05 04:15:45;;;;;;;7.80;4.20;;;4.50;99.90;;;;;;4169649;28;20550;-65
2023/04/05 04:17:46;;;;;;;8.65;4.75;;;4.40;99.90;;;;;;4171246;28;20041;-66
2023/04/05 04:19:46;;;;;;;8.02;4.68;;;4.40;99.90;;;;;;4169563;28;20046;-66
2023/04/05 04:21:50;;;;;;;7.38;4.10;;;4.40;99.90;;;;;;4171350;28;20033;-66
2023/04/05 04:23:51;;;;;;;7.93;4.20;;;4.40;99.90;;;;;;4166815;28;20030;-66
2023/04/05 04:25:53;;;;;;;8.02;4.45;;;4.40;99.90;;;;;;4164764;28;20037;-65
2023/04/05 04:27:54;;;;;;;5.72;3.40;;;4.40;99.90;;;;;;4170072;28;20099;-66
2023/04/05 04:30:00;;;;;;;5.97;4.18;;;4.30;99.90;;;;;;4165180;28;20037;-65
2023/04/05 04:32:00;;;;;;;11.18;4.38;;;4.30;99.90;;;;;;4161401;28;20096;-65
2023/04/05 04:34:03;;;;;;;6.25;4.03;;;4.30;99.90;;;;;;4167243;28;20030;-66
2023/04/05 04:36:12;;;;;;;7.10;4.13;;;4.30;99.90;;;;;;4171807;28;20469;-66
2023/04/05 04:38:17;;;;;;;5.90;3.92;;;4.20;99.90;;;;;;4175058;28;20500;-66
2023/04/05 04:40:18;;;;;;;7.60;4.50;;;4.30;99.90;;;;;;4164558;28;20025;-66
2023/04/05 04:42:21;;;;;;;6.80;4.43;;;4.30;99.90;;;;;;4178180;28;20357;-65
2023/04/05 04:44:27;;;;;;;7.97;4.63;;;4.30;99.90;;;;;;4170452;28;20060;-65
2023/04/05 04:46:41;;;;;;;7.35;4.35;;;4.20;99.90;;;;;;4171614;28;20029;-66
2023/04/05 04:48:42;;;;;;;7.35;4.07;;;4.30;99.90;;;;;;4161558;28;20030;-65
2023/04/05 04:50:43;;;;;;;7.43;4.68;;;4.20;99.90;;;;;;4164439;28;20111;-66
2023/04/05 04:52:44;;;;;;;8.32;4.15;;;4.20;99.90;;;;;;4168054;28;20443;-65
2023/04/05 04:54:46;;;;;;;9.30;4.30;;;4.30;99.90;;;;;;4164646;28;20489;-66
2023/04/05 04:56:46;;;;;;;7.22;3.88;;;4.20;99.90;;;;;;4162614;28;20489;-66
2023/04/05 04:58:47;;;;;;;6.72;4.32;;;4.20;99.90;;;;;;4175479;28;20045;-65
2023/04/05 05:00:48;;;;;;;6.95;3.95;;;4.20;99.90;;;;;;4174308;28;20057;-65
2023/04/05 05:02:51;;;;;;;6.03;4.03;;;4.20;99.90;;;;;;4165418;28;20040;-66
2023/04/05 05:04:51;;;;;;;6.13;3.50;;;4.10;99.90;;;;;;4164106;28;20060;-65
2023/04/05 05:06:53;;;;;;;6.72;3.47;;;4.20;99.90;;;;;;4167267;28;20040;-66
2023/04/05 05:08:53;;;;;;;7.88;4.43;;;4.20;99.90;;;;;;4168068;28;20022;-65
2023/04/05 05:10:54;;;;;;;7.65;4.70;;;4.10;99.90;;;;;;4163617;28;20377;-66
2023/04/05 05:12:55;;;;;;;8.00;4.50;;;4.10;99.90;;;;;;4176536;28;20044;-65
2023/04/05 05:14:56;;;;;;;8.52;4.38;;;4.10;99.90;;;;;;4171480;28;20366;-66
2023/04/05 05:16:59;;;;;;;7.72;4.68;;;4.10;99.90;;;;;;4175349;28;20045;-65
2023/04/05 05:19:00;;;;;;;6.72;4.30;;;4.10;99.90;;;;;;4170469;28;20037;-65
2023/04/05 05:21:00;;;;;;;9.05;4.72;;;4.10;99.90;;;;;;4169010;28;20033;-66
2023/04/05 05:23:02;;;;;;;8.63;4.97;;;4.10;99.90;;;;;;4172294;28;20064;-65
2023/04/05 05:25:05;;;;;;;7.80;4.88;;;4.10;99.90;;;;;;4170901;28;20045;-66
2023/04/05 05:27:05;;;;;;;7.05;4.50;;;4.10;99.90;;;;;;4167440;28;20040;-65
2023/04/05 05:29:06;;;;;;;7.55;4.18;;;4.10;99.90;;;;;;4168291;28;20048;-66
2023/04/05 05:31:06;;;;;;;11.98;4.28;;;4.10;99.90;;;;;;4163862;28;20033;-68
2023/04/05 05:33:07;;;;;;;8.65;5.38;;;4.10;99.90;;;;;;4169624;28;20040;-66
2023/04/05 05:35:08;;;;;;;7.68;4.75;;;4.10;99.90;;;;;;4169278;28;20025;-67
2023/04/05 05:37:09;;;;;;;7.80;4.72;;;4.10;99.90;;;;;;4174006;28;20045;-66
2023/04/05 05:39:10;;;;;;;5.95;3.90;;;4.10;99.90;;;;;;4169099;28;20033;-65
2023/04/05 05:41:11;;;;;;;8.18;5.10;;;4.10;99.90;;;;;;4166808;28;20033;-66
2023/04/05 05:43:11;;;;;;;9.00;4.68;;;4.10;99.90;;;;;;4178473;28;20028;-66
2023/04/05 05:45:12;;;;;;;8.52;4.75;;;4.10;99.90;;;;;;4166967;28;20419;-67
2023/04/05 05:47:12;;;;;;;7.82;5.18;;;4.10;99.90;;;;;;4175726;28;20126;-65
2023/04/05 05:49:13;;;;;;;9.43;4.78;;;4.10;99.90;;;;;;4174329;28;20029;-65
2023/04/05 05:51:14;;;;;;;7.38;4.50;;;4.10;99.90;;;;;;4163742;28;20029;-65
2023/04/05 05:53:15;;;;;;;8.05;4.90;;;4.10;99.90;;;;;;4164406;28;20113;-65
2023/04/05 05:55:15;;;;;;;7.80;4.72;;;4.10;99.90;;;;;;4179915;28;20029;-65
2023/04/05 05:57:16;;;;;;;7.70;5.10;;;4.10;99.90;;;;;;4165983;28;20037;-65
2023/04/05 05:59:17;;;;;;;6.70;4.40;;;4.20;99.90;;;;;;4163724;28;20073;-65
2023/04/05 06:01:21;;;;;;;7.75;4.60;;;4.20;99.90;;;;;;4162328;28;20116;-65
2023/04/05 06:03:22;;;;;;;6.90;4.20;;;4.20;99.90;;;;;;4172173;28;20029;-65
2023/04/05 06:05:24;;;;;;;9.18;4.60;;;4.20;99.90;;;;;;4179616;28;20508;-65
2023/04/05 06:07:25;;;;;;;6.63;4.20;;;4.20;99.90;;;;;;4165307;28;20038;-65
2023/04/05 06:09:26;;;;;;;8.73;4.95;;;4.30;99.90;;;;;;4171837;28;20357;-65
2023/04/05 06:11:27;;;;;;;9.73;5.00;;;4.30;99.90;;;;;;4173730;28;20098;-65
2023/04/05 06:13:27;;;;;;;7.00;3.90;;;4.30;99.90;;;;;;4180026;28;20025;-65
2023/04/05 06:15:29;;;;;;;9.60;5.03;;;4.40;99.90;;;;;;4164403;28;20388;-66
2023/04/05 06:17:30;;;;;;;8.70;4.72;;;4.40;99.90;;;;;;4170935;28;20052;-65
2023/04/05 06:19:31;;;;;;;7.93;4.13;;;4.40;99.90;;;;;;4180263;28;20586;-65
2023/04/05 06:21:31;;;;;;;9.07;4.85;;;4.40;99.90;;;;;;4176968;28;20033;-64
2023/04/05 06:23:32;;;;;;;6.75;4.60;;;4.40;99.90;;;;;;4162577;28;20037;-66
2023/04/05 06:25:33;;;;;;;6.05;4.30;;;4.50;99.90;;;;;;4162466;28;20038;-66
2023/04/05 06:27:34;;;;;;;7.47;4.45;;;4.50;99.90;;;;;;4164275;28;20484;-66
2023/04/05 06:29:34;;;;;;;9.70;5.25;;;4.50;99.90;;;;;;4167835;28;20441;-66
2023/04/05 06:31:36;;;;;;;9.80;5.15;;;4.50;99.90;;;;;;4164471;28;20167;-66
2023/04/05 06:33:36;;;;;;;7.78;4.65;;;4.60;99.90;;;;;;4169446;28;20036;-66
2023/04/05 06:35:37;;;;;;;8.98;5.10;;;4.70;99.90;;;;;;4164795;28;20030;-66
2023/04/05 06:37:38;;;;;;;11.60;6.25;;;4.70;99.90;;;;;;4163211;28;20072;-66
2023/04/05 06:39:38;;;;;;;13.35;6.45;;;4.80;99.90;;;;;;4171967;28;20412;-66
2023/04/05 06:41:39;;;;;;;12.20;6.82;;;4.80;99.90;;;;;;4164165;28;20035;-66
2023/04/05 06:43:40;;;;;;;12.07;6.40;;;5.00;99.90;;;;;;4165401;28;20043;-66
2023/04/05 06:45:41;;;;;;;10.27;5.88;;;5.20;99.90;;;;;;4161620;28;20034;-66
2023/04/05 06:47:42;;;;;;;9.27;5.80;;;5.40;99.90;;;;;;4169486;28;20504;-66
2023/04/05 06:49:43;;;;;;;10.60;5.90;;;5.70;99.90;;;;;;4168958;28;20071;-66
2023/04/05 06:51:43;;;;;;;8.35;5.35;;;6.10;99.90;;;;;;4167283;28;20485;-66
2023/04/05 06:53:44;;;;;;;10.93;5.40;;;6.50;99.90;;;;;;4163019;28;20028;-67
2023/04/05 06:55:49;;;;;;;10.63;6.05;;;6.80;99.90;;;;;;4168643;28;20476;-68
2023/04/05 06:57:50;;;;;;;9.23;5.38;;;7.20;99.90;;;;;;4168710;28;20041;-68
2023/04/05 06:59:51;;;;;;;13.23;6.32;;;7.40;99.90;;;;;;4161974;28;20388;-68
2023/04/05 07:01:52;;;;;;;11.18;6.55;;;7.80;99.90;;;;;;4167603;28;20037;-68
2023/04/05 07:03:52;;;;;;;11.13;6.10;;;8.10;99.90;;;;;;4166521;28;20084;-68
2023/04/05 07:05:55;;;;;;;11.77;6.10;;;8.40;99.90;;;;;;4163547;28;20029;-68
2023/04/05 07:07:56;;;;;;;9.60;5.65;;;8.70;99.90;;;;;;4167501;28;20030;-68
2023/04/05 07:09:56;;;;;;;10.70;6.38;;;9.00;99.90;;;;;;4170490;28;20039;-68
2023/04/05 07:11:58;;;;;;;13.88;6.75;;;9.30;99.90;;;;;;4160727;28;20029;-68
2023/04/05 07:13:59;;;;;;;10.85;6.15;;;9.60;99.90;;;;;;4168517;28;20511;-68
2023/04/05 07:16:01;;;;;;;10.60;6.20;;;9.90;99.90;;;;;;4165914;28;20029;-68
2023/04/05 07:18:02;;;;;;;9.77;5.68;;;10.20;99.90;;;;;;4168445;28;20124;-69
2023/04/05 07:20:05;;;;;;;14.57;6.20;;;10.40;99.90;;;;;;4168050;28;20030;-67
2023/04/05 07:22:06;;;;;;;10.25;5.53;;;10.70;99.90;;;;;;4175884;28;20095;-69
2023/04/05 07:24:07;;;;;;;9.65;5.22;;;11.00;99.20;;;;;;4173017;28;20029;-69
2023/04/05 07:26:07;;;;;;;9.18;5.03;;;11.30;96.00;;;;;;4169898;28;20052;-68
2023/04/05 07:28:08;;;;;;;12.02;5.78;;;11.50;97.30;;;;;;4167301;28;20155;-68
2023/04/05 07:30:09;;;;;;;11.45;4.70;;;11.70;92.60;;;;;;4172090;28;20099;-69
2023/04/05 07:32:10;;;;;;;9.30;4.72;;;11.90;92.80;;;;;;4162533;28;20025;-68
2023/04/05 07:34:12;;;;;;;6.85;4.38;;;12.00;90.00;;;;;;4161543;28;20087;-68
2023/04/05 07:36:12;;;;;;;8.32;4.60;;;12.10;91.30;;;;;;4165161;28;20111;-68
2023/04/05 07:38:13;;;;;;;8.05;4.53;;;12.30;90.40;;;;;;4164560;28;20044;-69
2023/04/05 07:40:14;;;;;;;9.80;4.38;;;12.40;92.10;;;;;;4163952;28;20507;-69
2023/04/05 07:42:16;;;;;;;9.88;5.20;;;12.60;90.90;;;;;;4162172;28;20033;-68
2023/04/05 07:44:17;;;;;;;9.48;4.85;;;12.70;90.10;;;;;;4167192;28;20044;-69
2023/04/05 07:46:18;;;;;;;8.73;4.75;;;12.70;84.70;;;;;;4174242;28;20033;-69
2023/04/05 07:48:19;;;;;;;9.43;4.88;;;12.90;84.60;;;;;;4170004;28;20047;-68
2023/04/05 07:50:20;;;;;;;8.05;4.43;;;13.00;85.80;;;;;;4175201;28;20037;-68
2023/04/05 07:52:20;;;;;;;9.38;4.78;;;13.10;81.50;;;;;;4168434;28;20037;-68
2023/04/05 07:54:21;;;;;;;11.82;5.45;;;13.20;88.90;;;;;;4163233;28;20033;-69
2023/04/05 07:56:23;;;;;;;8.32;4.88;;;13.30;83.30;;;;;;4158594;28;20029;-69
2023/04/05 07:58:24;;;;;;;8.77;4.70;;;13.40;81.50;;;;;;4164511;28;20037;-69
2023/04/05 08:00:26;;;;;;;8.30;4.63;;;13.40;81.40;;;;;;4168406;28;20034;-69
2023/04/05 08:02:26;;;;;;;9.65;5.38;;;13.60;82.60;;;;;;4152232;28;20081;-68
2023/04/05 08:04:27;;;;;;;10.02;5.55;;;13.50;79.20;;;;;;4171866;28;20117;-69
2023/04/05 08:06:27;;;;;;;8.60;5.63;;;13.60;82.60;;;;;;4178012;28;20033;-68
2023/04/05 08:08:28;;;;;;;9.35;5.38;;;13.60;79.30;;;;;;4163376;28;20492;-69
2023/04/05 08:10:29;;;;;;;7.75;5.03;;;13.50;79.60;;;;;;4166478;28;20068;-68
2023/04/05 08:12:31;;;;;;;10.50;5.45;;;13.40;78.50;;;;;;4161675;28;20029;-69
2023/04/05 08:14:31;;;;;;;10.27;4.88;;;13.50;79.10;;;;;;4163602;28;20469;-68
2023/04/05 08:16:32;;;;;;;8.00;4.88;;;13.50;79.70;;;;;;4169200;28;20037;-68
2023/04/05 08:18:33;;;;;;;13.25;6.45;;;13.60;81.00;;;;;;4174035;28;20055;-69
2023/04/05 08:20:37;;;;;;;9.43;5.47;;;13.30;77.10;;;;;;4162472;28;20112;-68
2023/04/05 08:22:38;;;;;;;12.65;5.28;;;13.10;76.90;;;;;;4164812;28;20034;-69
2023/04/05 08:24:39;;;;;;;10.57;5.72;;;13.10;81.50;;;;;;4164948;28;20496;-68
2023/04/05 08:26:40;;;;;;;11.15;5.50;;;13.20;81.50;;;;;;4168817;28;20026;-68
2023/04/05 08:28:41;;;;;;;15.48;6.82;;;13.30;82.20;;;;;;4161622;28;20025;-68
2023/04/05 08:30:42;;;;;;;14.70;6.90;;;13.30;82.40;;;;;;4170020;28;20037;-68
2023/04/05 08:32:42;;;;;;;15.52;7.03;;;13.40;81.10;;;;;;4160926;28;20064;-70
2023/04/05 08:34:43;;;;;;;12.13;6.60;;;13.50;80.60;;;;;;4174469;28;20025;-67
2023/04/05 08:36:43;;;;;;;13.70;7.10;;;13.50;81.00;;;;;;4168762;28;20034;-69
2023/04/05 08:38:44;;;;;;;11.45;6.05;;;13.60;79.80;;;;;;4156921;28;20517;-69
2023/04/05 08:40:46;;;;;;;13.30;6.20;;;13.60;80.70;;;;;;4145642;28;20041;-69
2023/04/05 08:43:11;;;;;;;8.80;5.63;;;13.70;80.00;;;;;;4174506;28;20484;-68
2023/04/05 08:45:16;;;;;;;9.95;5.65;;;13.70;79.70;;;;;;4170724;28;20033;-69
2023/04/05 08:47:21;;;;;;;11.00;6.18;;;13.80;77.40;;;;;;4164770;28;20049;-69
2023/04/05 08:49:22;;;;;;;11.02;5.90;;;13.80;79.20;;;;;;4172521;28;20104;-68
2023/04/05 08:51:25;;;;;;;10.82;6.13;;;13.90;78.50;;;;;;4172059;28;20048;-67
2023/04/05 08:53:25;;;;;;;10.65;6.55;;;13.90;80.50;;;;;;4172146;28;20025;-69
2023/04/05 08:55:26;;;;;;;10.65;5.97;;;13.90;80.70;;;;;;4170717;28;20600;-68
2023/04/05 08:57:29;;;;;;;12.18;6.65;;;14.00;79.30;;;;;;4170633;28;20057;-69
2023/04/05 08:59:34;;;;;;;11.55;6.20;;;13.90;78.70;;;;;;4165108;28;20412;-68
2023/04/05 09:01:44;;;;;;;10.68;6.15;;;14.00;79.30;;;;;;4170701;28;20170;-68
2023/04/05 09:03:47;;;;;;;12.77;6.50;;;14.00;80.20;;;;;;4174657;28;20065;-67
2023/04/05 09:05:50;;;;;;;9.60;5.50;;;13.90;75.60;;;;;;4167155;28;20037;-68
2023/04/05 09:07:51;;;;;;;12.18;6.32;;;13.80;75.40;;;;;;4175729;28;20083;-68
2023/04/05 09:09:53;;;;;;;12.07;6.35;;;13.70;77.50;;;;;;4172209;28;20076;-68
2023/04/05 09:11:55;;;;;;;11.70;6.38;;;13.70;78.20;;;;;;4173312;28;20117;-68
2023/04/05 09:13:56;;;;;;;11.55;6.82;;;13.70;78.80;;;;;;4163749;28;20033;-68
2023/04/05 09:15:59;;;;;;;12.93;6.35;;;13.70;80.30;;;;;;4166056;28;20040;-68
2023/04/05 09:17:59;;;;;;;11.63;6.47;;;13.90;80.30;;;;;;4167079;28;20036;-69
2023/04/05 09:20:00;;;;;;;11.60;6.40;;;13.90;77.50;;;;;;4169569;28;20055;-68
2023/04/05 09:22:03;;;;;;;13.27;7.18;;;14.00;77.90;;;;;;4168462;28;20034;-68
2023/04/05 09:24:04;;;;;;;11.52;6.57;;;13.80;73.20;;;;;;4170287;28;20048;-68
2023/04/05 09:26:22;;;;;;;9.98;6.75;;;13.80;76.50;;;;;;4166160;28;20740;-69
2023/04/05 09:28:32;;;;;;;12.70;7.05;;;13.80;74.10;;;;;;4165671;28;20033;-68
2023/04/05 09:30:35;;;;;;;15.23;7.82;;;13.90;76.80;;;;;;4165713;28;20033;-68
2023/04/05 09:32:36;;;;;;;15.23;6.78;;;13.60;75.00;;;;;;4169758;28;20029;-69
2023/04/05 09:34:38;;;;;;;13.18;6.72;;;13.50;70.70;;;;;;4166563;28;20354;-69
2023/04/05 09:36:44;;;;;;;15.35;7.25;;;13.50;74.10;;;;;;4162893;28;20056;-68
2023/04/05 09:38:45;;;;;;;12.88;6.75;;;13.30;72.30;;;;;;4168918;28;20046;-68
2023/04/05 09:40:47;;;;;;;11.93;5.82;;;13.10;69.90;;;;;;4165003;28;20090;-68
2023/04/05 09:42:48;;;;;;;11.63;6.22;;;13.00;68.90;;;;;;4167711;28;20069;-68
2023/04/05 09:44:50;;;;;;;10.60;6.03;;;13.00;72.80;;;;;;4166421;28;20041;-68
2023/04/05 09:46:50;;;;;;;13.23;6.93;;;13.10;74.00;;;;;;4163011;28;20075;-68
2023/04/05 09:48:51;;;;;;;12.00;6.57;;;13.10;72.00;;;;;;4162553;28;20029;-68
2023/04/05 09:51:04;;;;;;;9.68;5.95;;;12.80;67.90;;;;;;4177577;28;20538;-68
2023/04/05 09:53:14;;;;;;;7.88;4.38;;;12.80;69.90;;;;;;4173397;28;20033;-69
2023/04/05 09:55:26;;;;;;;7.93;5.07;;;12.80;71.90;;;;;;4170960;28;20025;-68
2023/04/05 09:57:32;;;;;;;7.85;5.22;;;12.90;76.40;;;;;;4161791;28;20025;-68
2023/04/05 09:59:32;;;;;;;7.47;4.57;;;13.10;76.00;;;;;;4165095;28;20029;-69
2023/04/05 10:01:33;;;;;;;8.02;5.07;;;13.10;70.10;;;;;;4176570;28;20452;-68
2023/04/05 10:03:48;;;;;;;10.90;5.80;;;13.10;72.60;;;;;;4169277;28;20033;-68
2023/04/05 10:05:54;;;;;;;10.40;5.63;;;13.20;77.30;;;;;;4160806;28;20128;-69
2023/04/05 10:07:55;;;;;;;8.45;5.20;;;13.20;69.50;;;;;;4163219;28;20049;-68
2023/04/05 10:09:56;;;;;;;8.27;4.85;;;13.30;70.40;;;;;;4167309;28;20049;-69
2023/04/05 10:11:57;;;;;;;9.23;5.00;;;13.30;70.70;;;;;;4163960;28;20060;-68
2023/04/05 10:14:02;;;;;;;10.10;5.57;;;13.40;71.20;;;;;;4171567;28;20090;-67
2023/04/05 10:16:07;;;;;;;9.48;5.63;;;13.50;74.00;;;;;;4172221;28;20404;-68
2023/04/05 10:18:20;;;;;;;9.75;5.80;;;13.60;71.10;;;;;;4167454;28;20492;-69
2023/04/05 10:20:22;;;;;;;10.82;5.97;;;13.60;72.50;;;;;;4168750;28;20084;-69
2023/04/05 10:22:39;;;;;;;10.88;4.70;;;13.60;71.60;;;;;;4163402;28;20380;-69
2023/04/05 10:24:50;;;;;;;9.50;5.55;;;13.70;76.40;;;;;;4164214;28;20025;-68
2023/04/05 10:27:07;;;;;;;7.25;4.97;;;13.80;77.80;;;;;;4165911;28;20056;-68
2023/04/05 10:29:18;;;;;;;9.02;5.47;;;13.90;71.10;;;;;;4156177;28;20053;-68
2023/04/05 10:31:32;;;;;;;8.52;5.55;;;13.90;69.90;;;;;;4145961;28;20041;-69
2023/04/05 10:33:40;;;;;;;;;;;14.00;72.70;;;;;;4161240;28;20052;-68
2023/04/05 10:35:59;;;;;;;11.27;5.90;;;14.10;79.10;;;;;;4177059;28;19908;-69
2023/04/05 10:38:23;;;;;;;12.10;6.00;;;14.10;78.70;;;;;;4174225;28;20041;-68
2023/04/05 10:40:30;;;;;;;18.60;7.40;;;14.20;74.90;;;;;;4168928;28;20033;-68
2023/04/05 10:42:58;;;;;;;15.20;7.60;;;14.20;76.80;;;;;;4178016;28;20025;-69
2023/04/05 10:45:03;;;;;;;10.57;5.72;;;14.20;77.10;;;;;;4171726;28;20048;-68